createdAt,value
2017-12-17T00:00:54.102Z,17.07
2017-12-17T00:03:21.899Z,16.63
2017-12-17T00:05:53.002Z,17.73
2017-12-17T00:08:22.825Z,21.50
2017-12-17T00:10:50.017Z,21.50
2017-12-17T00:13:20.840Z,18.43
2017-12-17T00:15:51.666Z,17.07
2017-12-17T00:18:21.441Z,18.10
2017-12-17T00:20:55.653Z,19.97
2017-12-17T00:23:23.894Z,19.70
2017-12-17T00:25:52.994Z,15.77
2017-12-17T00:28:24.716Z,18.90
2017-12-17T00:30:52.638Z,18.20
2017-12-17T00:33:20.111Z,15.50
2017-12-17T00:35:51.028Z,19.30
2017-12-17T00:38:21.658Z,22.30
2017-12-17T00:40:50.564Z,20.80
2017-12-17T00:43:20.776Z,21.10
2017-12-17T00:45:50.431Z,18.47
2017-12-17T00:48:20.351Z,19.50
2017-12-17T00:50:50.194Z,24.07
2017-12-17T00:53:21.221Z,19.20
2017-12-17T00:55:51.940Z,23.40
2017-12-17T00:58:20.730Z,19.57
2017-12-17T01:00:50.657Z,24.27
2017-12-17T01:03:20.038Z,22.90
2017-12-17T01:05:48.665Z,21.40
2017-12-17T01:08:20.276Z,20.80
2017-12-17T01:10:50.402Z,23.30
2017-12-17T01:13:22.390Z,22.90
2017-12-17T01:15:53.801Z,22.37
2017-12-17T01:18:20.875Z,23.60
2017-12-17T01:20:49.987Z,25.23
2017-12-17T01:23:17.829Z,24.73
2017-12-17T01:25:45.436Z,26.37
2017-12-17T01:28:20.037Z,33.33
2017-12-17T01:30:49.416Z,33.73
2017-12-17T01:33:19.945Z,39.37
2017-12-17T01:35:48.768Z,36.10
2017-12-17T01:38:21.113Z,37.00
2017-12-17T01:40:51.789Z,39.73
2017-12-17T01:43:21.820Z,39.80
2017-12-17T01:45:53.253Z,35.33
2017-12-17T01:48:23.533Z,34.07
2017-12-17T01:50:51.575Z,38.43
2017-12-17T01:53:22.468Z,34.20
2017-12-17T01:55:53.152Z,33.13
2017-12-17T01:58:22.651Z,32.50
2017-12-17T02:00:50.153Z,33.27
2017-12-17T02:03:20.060Z,30.60
2017-12-17T02:05:49.700Z,28.33
2017-12-17T02:08:22.010Z,32.33
2017-12-17T02:10:57.521Z,29.07
2017-12-17T02:13:28.425Z,38.63
2017-12-17T02:15:55.248Z,30.53
2017-12-17T02:18:24.717Z,29.83
2017-12-17T02:20:52.958Z,30.47
2017-12-17T02:23:20.706Z,25.93
2017-12-17T02:25:50.960Z,31.33
2017-12-17T02:28:21.289Z,35.43
2017-12-17T02:30:52.139Z,30.20
2017-12-17T02:33:23.484Z,26.67
2017-12-17T02:35:51.705Z,26.77
2017-12-17T02:38:23.494Z,25.93
2017-12-17T02:40:53.589Z,27.50
2017-12-17T02:43:21.773Z,30.27
2017-12-17T02:45:52.709Z,25.53
2017-12-17T02:48:23.220Z,26.90
2017-12-17T02:50:53.891Z,28.67
2017-12-17T02:53:22.681Z,22.40
2017-12-17T02:55:51.405Z,26.73
2017-12-17T02:58:23.389Z,28.37
2017-12-17T03:00:54.517Z,26.70
2017-12-17T03:03:24.609Z,24.87
2017-12-17T03:05:52.306Z,26.80
2017-12-17T03:08:23.503Z,24.63
2017-12-17T03:10:54.246Z,28.37
2017-12-17T03:13:23.625Z,24.10
2017-12-17T03:15:53.574Z,29.33
2017-12-17T03:18:23.274Z,30.83
2017-12-17T03:20:53.689Z,26.80
2017-12-17T03:23:24.616Z,29.73
2017-12-17T03:26:00.641Z,29.53
2017-12-17T03:28:27.305Z,25.73
2017-12-17T03:30:55.109Z,25.17
2017-12-17T03:33:24.944Z,29.40
2017-12-17T03:35:53.630Z,32.93
2017-12-17T03:38:23.069Z,36.50
2017-12-17T03:40:53.996Z,36.07
2017-12-17T03:43:22.641Z,40.90
2017-12-17T03:45:51.780Z,38.10
2017-12-17T03:48:20.859Z,36.35
2017-12-17T03:50:59.279Z,34.67
2017-12-17T03:53:27.426Z,42.10
2017-12-17T03:55:54.209Z,38.47
2017-12-17T03:58:23.380Z,40.90
2017-12-17T04:00:52.205Z,42.50
2017-12-17T04:03:23.404Z,45.63
2017-12-17T04:05:53.791Z,40.15
2017-12-17T04:08:24.687Z,39.90
2017-12-17T04:10:54.028Z,42.17
2017-12-17T04:13:23.757Z,40.90
2017-12-17T04:15:55.061Z,39.78
2017-12-17T04:18:25.419Z,30.40
2017-12-17T04:20:53.758Z,35.08
2017-12-17T04:23:24.738Z,39.47
2017-12-17T04:25:53.785Z,30.77
2017-12-17T04:28:24.211Z,30.27
2017-12-17T04:30:53.745Z,28.17
2017-12-17T04:33:24.421Z,33.80
2017-12-17T04:35:53.157Z,35.00
2017-12-17T04:38:23.132Z,28.80
2017-12-17T04:40:53.433Z,37.00
2017-12-17T04:43:23.418Z,36.33
2017-12-17T04:45:55.217Z,33.03
2017-12-17T04:48:24.844Z,34.63
2017-12-17T04:50:56.917Z,38.90
2017-12-17T04:53:23.835Z,57.03
2017-12-17T04:55:53.490Z,57.95
2017-12-17T04:58:22.075Z,39.78
2017-12-17T05:00:53.813Z,38.58
2017-12-17T05:03:22.926Z,42.70
2017-12-17T05:05:52.549Z,49.80
2017-12-17T05:08:22.761Z,42.72
2017-12-17T05:10:53.055Z,47.55
2017-12-17T05:13:24.568Z,53.42
2017-12-17T05:15:54.620Z,45.97
2017-12-17T05:18:23.217Z,59.28
2017-12-17T05:20:52.627Z,55.67
2017-12-17T05:23:22.172Z,63.35
2017-12-17T05:25:54.829Z,67.25
2017-12-17T05:28:23.321Z,63.15
2017-12-17T05:30:51.635Z,77.30
2017-12-17T05:33:24.163Z,84.60
2017-12-17T05:35:54.561Z,77.75
2017-12-17T05:38:23.941Z,76.45
2017-12-17T05:40:52.486Z,63.30
2017-12-17T05:43:20.967Z,64.20
2017-12-17T05:45:54.123Z,52.67
2017-12-17T05:48:25.263Z,48.00
2017-12-17T05:50:54.884Z,49.80
2017-12-17T05:53:23.091Z,42.40
2017-12-17T05:55:54.615Z,44.30
2017-12-17T05:58:24.939Z,38.97
2017-12-17T06:00:54.993Z,39.83
2017-12-17T06:03:23.753Z,39.20
2017-12-17T06:05:52.200Z,42.63
2017-12-17T06:08:22.986Z,44.20
2017-12-17T06:10:53.741Z,36.43
2017-12-17T06:13:22.837Z,38.03
2017-12-17T06:15:54.541Z,38.00
2017-12-17T06:18:23.552Z,35.17
2017-12-17T06:20:53.469Z,39.30
2017-12-17T06:23:23.602Z,38.03
2017-12-17T06:25:54.923Z,34.70
2017-12-17T06:28:25.948Z,35.33
2017-12-17T06:30:54.546Z,38.57
2017-12-17T06:33:24.736Z,49.57
2017-12-17T06:35:54.884Z,41.53
2017-12-17T06:38:24.811Z,44.10
2017-12-17T06:40:53.705Z,42.27
2017-12-17T06:43:25.652Z,42.60
2017-12-17T06:45:54.703Z,42.57
2017-12-17T06:48:24.722Z,43.30
2017-12-17T06:50:55.302Z,43.73
2017-12-17T06:53:24.932Z,39.27
2017-12-17T06:55:53.230Z,52.93
2017-12-17T06:58:24.901Z,43.67
2017-12-17T07:01:03.834Z,39.43
2017-12-17T07:03:31.218Z,44.10
2017-12-17T07:05:57.872Z,49.63
2017-12-17T07:08:25.685Z,45.13
2017-12-17T07:10:52.918Z,49.00
2017-12-17T07:13:22.649Z,43.67
2017-12-17T07:15:54.965Z,49.30
2017-12-17T07:18:23.917Z,48.60
2017-12-17T07:20:55.024Z,51.53
2017-12-17T07:23:25.060Z,53.77
2017-12-17T07:25:54.058Z,55.00
2017-12-17T07:28:24.680Z,52.90
2017-12-17T07:30:54.657Z,55.80
2017-12-17T07:33:24.941Z,53.03
2017-12-17T07:35:55.985Z,49.50
2017-12-17T07:38:24.533Z,54.43
2017-12-17T07:40:54.258Z,48.67
2017-12-17T07:43:23.279Z,54.93
2017-12-17T07:45:55.089Z,59.50
2017-12-17T07:48:24.673Z,58.50
2017-12-17T07:50:53.048Z,54.17
2017-12-17T07:53:22.206Z,59.30
2017-12-17T07:55:51.885Z,53.17
2017-12-17T07:58:20.510Z,52.90
2017-12-17T08:00:51.220Z,55.20
2017-12-17T08:03:22.152Z,56.47
2017-12-17T08:05:53.829Z,51.87
2017-12-17T08:08:21.733Z,54.47
2017-12-17T08:10:52.355Z,57.90
2017-12-17T08:13:22.875Z,52.07
2017-12-17T08:15:53.688Z,46.63
2017-12-17T08:18:21.353Z,58.70
2017-12-17T08:20:51.554Z,55.50
2017-12-17T08:23:20.922Z,52.50
2017-12-17T08:25:52.159Z,61.20
2017-12-17T08:28:22.233Z,54.23
2017-12-17T08:30:52.097Z,54.60
2017-12-17T08:33:24.021Z,55.13
2017-12-17T08:35:55.457Z,52.87
2017-12-17T08:38:25.045Z,52.77
2017-12-17T08:40:53.126Z,48.60
2017-12-17T08:43:20.721Z,49.80
2017-12-17T08:45:50.737Z,52.60
2017-12-17T08:48:20.019Z,47.20
2017-12-17T08:50:49.554Z,47.13
2017-12-17T08:53:21.209Z,42.93
2017-12-17T08:55:53.048Z,42.47
2017-12-17T08:58:23.416Z,42.00
2017-12-17T09:00:52.429Z,46.60
2017-12-17T09:03:21.453Z,46.77
2017-12-17T09:05:55.860Z,51.67
2017-12-17T09:08:23.146Z,42.73
2017-12-17T09:10:52.717Z,41.83
2017-12-17T09:13:23.889Z,42.70
2017-12-17T09:15:52.721Z,40.80
2017-12-17T09:18:23.957Z,47.37
2017-12-17T09:20:53.889Z,40.07
2017-12-17T09:23:23.636Z,40.17
2017-12-17T09:25:54.122Z,42.93
2017-12-17T09:28:31.733Z,40.33
2017-12-17T09:30:58.413Z,45.73
2017-12-17T09:33:25.064Z,36.90
2017-12-17T09:35:54.227Z,40.43
2017-12-17T09:38:22.745Z,42.80
2017-12-17T09:40:52.088Z,35.83
2017-12-17T09:43:19.602Z,38.90
2017-12-17T09:45:59.841Z,41.40
2017-12-17T09:48:26.505Z,39.50
2017-12-17T09:50:53.796Z,37.43
2017-12-17T09:53:23.901Z,35.37
2017-12-17T09:55:54.795Z,36.13
2017-12-17T09:58:22.968Z,37.00
2017-12-17T10:00:52.689Z,35.33
2017-12-17T10:05:53.958Z,30.67
2017-12-17T10:08:24.225Z,35.10
2017-12-17T10:10:54.640Z,36.33
2017-12-17T10:13:23.793Z,35.63
2017-12-17T10:15:52.894Z,37.10
2017-12-17T10:18:23.269Z,32.03
2017-12-17T10:20:54.136Z,34.60
2017-12-17T10:23:23.209Z,34.80
2017-12-17T10:25:54.297Z,33.93
2017-12-17T10:28:23.297Z,36.27
2017-12-17T10:30:54.054Z,35.83
2017-12-17T10:33:24.931Z,37.77
2017-12-17T10:35:54.789Z,32.47
2017-12-17T10:38:23.285Z,37.90
2017-12-17T10:40:55.220Z,38.73
2017-12-17T10:43:35.248Z,33.20
2017-12-17T10:46:01.924Z,38.30
2017-12-17T10:48:31.358Z,36.80
2017-12-17T10:50:58.028Z,34.47
2017-12-17T10:53:24.677Z,37.17
2017-12-17T10:55:53.238Z,34.23
2017-12-17T10:58:20.967Z,35.10
2017-12-17T11:00:50.999Z,40.40
2017-12-17T11:03:23.560Z,39.60
2017-12-17T11:05:53.237Z,38.13
2017-12-17T11:08:21.948Z,33.87
2017-12-17T11:10:49.861Z,32.20
2017-12-17T11:13:22.026Z,26.80
2017-12-17T11:15:50.135Z,26.60
2017-12-17T11:18:20.167Z,31.17
2017-12-17T11:20:49.173Z,31.63
2017-12-17T11:23:20.941Z,29.70
2017-12-17T11:25:48.714Z,33.83
2017-12-17T11:28:18.553Z,37.17
2017-12-17T11:30:48.708Z,34.83
2017-12-17T11:33:18.585Z,35.17
2017-12-17T11:35:53.450Z,26.57
2017-12-17T11:38:26.696Z,30.10
2017-12-17T11:40:54.105Z,24.40
2017-12-17T11:43:22.812Z,28.63
2017-12-17T11:45:50.349Z,29.70
2017-12-17T11:48:21.580Z,24.53
2017-12-17T11:50:53.869Z,25.83
2017-12-17T11:53:21.502Z,27.37
2017-12-17T11:55:49.801Z,33.63
2017-12-17T11:58:20.060Z,29.47
2017-12-17T12:00:49.570Z,34.47
2017-12-17T12:03:19.735Z,32.93
2017-12-17T12:05:52.903Z,36.20
2017-12-17T12:08:24.324Z,30.90
2017-12-17T12:10:53.417Z,36.70
2017-12-17T12:13:22.527Z,33.53
2017-12-17T12:15:53.465Z,34.10
2017-12-17T12:18:32.077Z,34.53
2017-12-17T12:20:58.729Z,34.97
2017-12-17T12:23:26.182Z,33.30
2017-12-17T12:25:55.801Z,30.40
2017-12-17T12:28:23.427Z,29.80
2017-12-17T12:30:51.074Z,28.47
2017-12-17T12:33:20.712Z,28.90
2017-12-17T12:35:50.953Z,32.60
2017-12-17T12:38:24.369Z,29.63
2017-12-17T12:40:55.366Z,39.00
2017-12-17T12:43:24.450Z,31.60
2017-12-17T12:45:51.818Z,29.60
2017-12-17T12:48:22.477Z,35.23
2017-12-17T12:50:53.083Z,34.17
2017-12-17T12:53:24.397Z,35.93
2017-12-17T12:55:53.032Z,36.60
2017-12-17T12:58:22.452Z,37.83
2017-12-17T13:00:51.406Z,35.93
2017-12-17T13:03:24.022Z,36.60
2017-12-17T13:05:55.472Z,38.37
2017-12-17T13:08:23.145Z,38.17
2017-12-17T13:10:53.353Z,36.73
2017-12-17T13:13:23.149Z,38.03
2017-12-17T13:15:54.079Z,36.70
2017-12-17T13:18:24.125Z,39.50
2017-12-17T13:20:54.445Z,41.07
2017-12-17T13:23:23.128Z,44.97
2017-12-17T13:25:54.402Z,37.40
2017-12-17T13:28:23.396Z,40.60
2017-12-17T13:30:53.089Z,38.13
2017-12-17T13:33:24.064Z,42.60
2017-12-17T13:35:54.405Z,42.93
2017-12-17T13:38:24.456Z,38.20
2017-12-17T13:40:55.273Z,43.00
2017-12-17T13:43:23.457Z,42.13
2017-12-17T13:45:52.849Z,49.77
2017-12-17T13:48:21.597Z,42.23
2017-12-17T13:50:54.013Z,47.17
2017-12-17T13:53:24.426Z,49.40
2017-12-17T13:55:53.552Z,50.80
2017-12-17T13:58:25.444Z,42.70
2017-12-17T14:00:54.924Z,40.73
2017-12-17T14:03:24.540Z,41.00
2017-12-17T14:05:53.557Z,47.03
2017-12-17T14:08:20.991Z,45.80
2017-12-17T14:10:52.861Z,49.37
2017-12-17T14:13:23.932Z,43.47
2017-12-17T14:15:54.509Z,45.07
2017-12-17T14:18:24.551Z,42.63
2017-12-17T14:20:52.506Z,41.10
2017-12-17T14:23:20.449Z,44.73
2017-12-17T14:25:51.260Z,45.13
2017-12-17T14:28:30.732Z,40.70
2017-12-17T14:30:57.830Z,39.50
2017-12-17T14:33:30.131Z,50.03
2017-12-17T14:35:57.497Z,48.93
2017-12-17T14:38:24.365Z,55.83
2017-12-17T14:40:55.010Z,45.97
2017-12-17T14:43:23.286Z,50.37
2017-12-17T14:45:54.594Z,41.30
2017-12-17T14:48:23.556Z,48.53
2017-12-17T14:50:53.250Z,46.47
2017-12-17T14:53:23.580Z,41.47
2017-12-17T14:55:53.758Z,45.37
2017-12-17T14:58:31.693Z,37.47
2017-12-17T15:00:58.357Z,47.87
2017-12-17T15:03:25.000Z,48.27
2017-12-17T15:05:53.014Z,41.40
2017-12-17T15:08:21.723Z,43.77
2017-12-17T15:10:52.413Z,44.90
2017-12-17T15:13:29.757Z,44.53
2017-12-17T15:15:56.425Z,49.40
2017-12-17T15:18:23.466Z,44.30
2017-12-17T15:20:54.546Z,55.10
2017-12-17T15:23:25.281Z,47.67
2017-12-17T15:25:54.684Z,46.40
2017-12-17T15:28:21.842Z,46.30
2017-12-17T15:30:52.916Z,46.50
2017-12-17T15:33:23.280Z,48.67
2017-12-17T15:35:51.727Z,43.67
2017-12-17T15:38:24.647Z,47.43
2017-12-17T15:41:00.831Z,48.47
2017-12-17T15:43:27.741Z,46.23
2017-12-17T15:45:55.065Z,43.93
2017-12-17T15:48:23.368Z,40.50
2017-12-17T15:50:54.319Z,42.73
2017-12-17T15:53:23.285Z,38.13
2017-12-17T15:55:51.766Z,39.07
2017-12-17T15:58:24.284Z,38.50
2017-12-17T16:00:54.285Z,41.00
2017-12-17T16:03:24.724Z,44.23
2017-12-17T16:05:54.685Z,42.30
2017-12-17T16:08:24.440Z,40.43
2017-12-17T16:10:53.802Z,39.03
2017-12-17T16:13:24.634Z,39.83
2017-12-17T16:15:52.622Z,41.37
2017-12-17T16:18:22.642Z,38.53
2017-12-17T16:20:51.536Z,38.67
2017-12-17T16:23:20.723Z,41.40
2017-12-17T16:25:53.400Z,49.27
2017-12-17T16:28:25.148Z,42.77
2017-12-17T16:30:54.702Z,44.80
2017-12-17T16:33:25.165Z,40.40
2017-12-17T16:35:54.760Z,49.80
2017-12-17T16:38:24.172Z,41.13
2017-12-17T16:40:53.586Z,43.50
2017-12-17T16:43:25.357Z,49.03
2017-12-17T16:45:55.269Z,37.77
2017-12-17T16:48:24.713Z,38.97
2017-12-17T16:50:53.853Z,47.37
2017-12-17T16:53:23.363Z,45.40
2017-12-17T16:55:52.502Z,36.10
2017-12-17T16:58:23.440Z,38.17
2017-12-17T17:00:53.678Z,35.73
2017-12-17T17:03:25.735Z,46.80
2017-12-17T17:05:55.487Z,42.67
2017-12-17T17:08:26.122Z,43.53
2017-12-17T17:10:54.694Z,42.67
2017-12-17T17:13:22.972Z,37.27
2017-12-17T17:15:51.814Z,44.70
2017-12-17T17:18:23.541Z,45.97
2017-12-17T17:20:53.035Z,41.93
2017-12-17T17:23:23.929Z,39.53
2017-12-17T17:25:51.955Z,39.57
2017-12-17T17:28:21.783Z,41.37
2017-12-17T17:30:54.821Z,43.00
2017-12-17T17:33:24.712Z,38.13
2017-12-17T17:35:55.408Z,40.97
2017-12-17T17:38:25.864Z,39.10
2017-12-17T17:40:55.176Z,44.47
2017-12-17T17:43:23.236Z,38.13
2017-12-17T17:45:51.053Z,34.43
2017-12-17T17:48:20.976Z,34.13
2017-12-17T17:50:51.757Z,35.73
2017-12-17T17:53:21.514Z,38.47
2017-12-17T17:55:52.766Z,36.03
2017-12-17T17:58:23.140Z,36.10
2017-12-17T18:00:52.294Z,39.30
2017-12-17T18:03:23.173Z,37.30
2017-12-17T18:05:54.748Z,32.70
2017-12-17T18:08:24.484Z,30.70
2017-12-17T18:10:53.488Z,39.93
2017-12-17T18:13:24.864Z,34.37
2017-12-17T18:15:55.275Z,37.70
2017-12-17T18:18:24.230Z,46.87
2017-12-17T18:20:53.797Z,34.50
2017-12-17T18:23:23.666Z,37.30
2017-12-17T18:25:53.241Z,36.00
2017-12-17T18:28:21.834Z,33.17
2017-12-17T18:30:54.456Z,33.53
2017-12-17T18:33:24.853Z,36.00
2017-12-17T18:35:54.381Z,32.83
2017-12-17T18:38:23.943Z,32.37
2017-12-17T18:40:54.885Z,35.27
2017-12-17T18:43:25.044Z,31.67
2017-12-17T18:45:53.998Z,30.47
2017-12-17T18:48:23.996Z,38.60
2017-12-17T18:50:52.057Z,35.97
2017-12-17T18:53:22.095Z,32.77
2017-12-17T18:55:51.155Z,32.07
2017-12-17T18:58:20.569Z,33.33
2017-12-17T19:00:54.488Z,28.43
2017-12-17T19:03:23.500Z,29.70
2017-12-17T19:05:50.543Z,34.40
2017-12-17T19:08:21.557Z,23.67
2017-12-17T19:10:56.009Z,27.20
2017-12-17T19:13:28.560Z,36.90
2017-12-17T19:15:55.657Z,27.00
2017-12-17T19:18:25.272Z,29.67
2017-12-17T19:20:54.881Z,29.20
2017-12-17T19:23:23.981Z,30.10
2017-12-17T19:25:52.296Z,37.20
2017-12-17T19:28:23.937Z,30.07
2017-12-17T19:30:52.476Z,28.97
2017-12-17T19:33:22.719Z,36.93
2017-12-17T19:35:54.371Z,32.70
2017-12-17T19:38:24.970Z,45.50
2017-12-17T19:40:53.248Z,40.53
2017-12-17T19:43:21.194Z,35.83
2017-12-17T19:45:51.557Z,35.50
2017-12-17T19:48:21.440Z,35.17
2017-12-17T19:50:51.786Z,32.77
2017-12-17T19:53:22.977Z,35.20
2017-12-17T19:55:55.090Z,33.60
2017-12-17T19:58:23.778Z,29.40
2017-12-17T20:00:51.797Z,31.57
2017-12-17T20:03:22.819Z,26.97
2017-12-17T20:05:52.603Z,31.60
2017-12-17T20:08:25.106Z,29.03
2017-12-17T20:10:54.223Z,34.63
2017-12-17T20:13:25.002Z,31.27
2017-12-17T20:15:54.083Z,27.87
2017-12-17T20:18:22.134Z,28.50
2017-12-17T20:20:54.779Z,31.43
2017-12-17T20:23:23.678Z,31.43
2017-12-17T20:25:55.132Z,28.27
2017-12-17T20:28:25.081Z,24.93
2017-12-17T20:30:54.048Z,26.40
2017-12-17T20:33:25.084Z,29.23
2017-12-17T20:35:54.052Z,25.23
2017-12-17T20:38:26.408Z,22.93
2017-12-17T20:40:54.195Z,23.30
2017-12-17T20:43:21.368Z,25.73
2017-12-17T20:45:49.247Z,21.47
2017-12-17T20:48:25.628Z,24.93
2017-12-17T20:50:54.580Z,18.73
2017-12-17T20:53:23.845Z,17.67
2017-12-17T20:55:51.530Z,24.50
2017-12-17T20:58:21.319Z,18.93
2017-12-17T21:00:50.422Z,24.20
2017-12-17T21:03:26.141Z,26.90
2017-12-17T21:05:53.834Z,16.50
2017-12-17T21:08:23.521Z,15.43
2017-12-17T21:10:51.147Z,16.80
2017-12-17T21:13:21.527Z,16.67
2017-12-17T21:15:50.708Z,19.60
2017-12-17T21:18:20.119Z,18.60
2017-12-17T21:20:50.418Z,15.63
2017-12-17T21:23:20.289Z,13.68
2017-12-17T21:25:51.053Z,13.63
2017-12-17T21:28:20.893Z,11.53
2017-12-17T21:30:51.980Z,10.93
2017-12-17T21:33:19.579Z,9.37
2017-12-17T21:35:49.276Z,14.47
2017-12-17T21:38:21.369Z,12.83
2017-12-17T21:40:51.591Z,9.10
2017-12-17T21:43:20.801Z,10.10
2017-12-17T21:45:49.074Z,9.17
2017-12-17T21:48:19.396Z,10.93
2017-12-17T21:50:48.632Z,9.43
2017-12-17T21:53:17.090Z,7.93
2017-12-17T21:55:47.487Z,8.93
2017-12-17T21:58:19.067Z,6.30
2017-12-17T22:00:47.319Z,6.33
2017-12-17T22:03:17.852Z,11.57
2017-12-17T22:05:46.089Z,5.23
2017-12-17T22:08:14.546Z,6.00
2017-12-17T22:10:41.766Z,8.80
2017-12-17T22:13:10.207Z,7.27
2017-12-17T22:15:38.701Z,5.13
2017-12-17T22:18:05.377Z,5.57
2017-12-17T22:20:32.016Z,5.50
2017-12-17T22:22:58.669Z,7.17
2017-12-17T22:25:25.309Z,6.13
2017-12-17T22:27:52.214Z,8.53
2017-12-17T22:30:19.760Z,4.87
2017-12-17T22:32:48.801Z,7.03
2017-12-17T22:35:20.473Z,11.13
2017-12-17T22:37:47.384Z,5.13
2017-12-17T22:40:14.152Z,6.47
2017-12-17T22:42:47.345Z,7.60
2017-12-17T22:45:22.598Z,10.20
2017-12-17T22:47:51.293Z,6.80
2017-12-17T22:50:21.091Z,5.80
2017-12-17T22:52:51.998Z,4.87
2017-12-17T22:55:21.917Z,7.63
2017-12-17T22:57:51.871Z,7.20
2017-12-17T23:00:20.224Z,7.10
2017-12-17T23:02:50.647Z,10.23
2017-12-17T23:05:20.249Z,9.30
2017-12-17T23:07:55.004Z,7.60
2017-12-17T23:10:24.872Z,9.90
2017-12-17T23:12:55.263Z,8.17
2017-12-17T23:15:23.314Z,8.77
2017-12-17T23:17:51.786Z,7.57
2017-12-17T23:20:21.384Z,9.43
2017-12-17T23:22:51.001Z,10.50
2017-12-17T23:25:21.074Z,11.17
2017-12-17T23:27:49.892Z,10.77
2017-12-17T23:30:20.512Z,13.07
2017-12-17T23:32:50.620Z,13.23
2017-12-17T23:35:20.770Z,16.70
2017-12-17T23:37:55.332Z,14.90
2017-12-17T23:40:25.320Z,19.27
2017-12-17T23:42:55.008Z,15.70
2017-12-17T23:45:23.039Z,18.48
